Time;durP1;ratioP1;P1;durP2;ratioP2;P2;SDS_P1;SDS_P2;PMS_P1;PMS_P2;Temp;Humidity;BMP_temperature;BMP_pressure;BME280_temperature;BME280_humidity;BME280_pressure;Samples;Min_cycle;Max_cycle;Signal;HPM_P1;HPM_P2
2022/12/07 00:01:39;;;;;;;9.98;7.40;;;1.60;99.90;;;;;;4930922;29;20384;-89
2022/12/07 00:04:10;;;;;;;8.90;6.70;;;1.60;99.90;;;;;;4929532;29;20192;-89
2022/12/07 00:06:42;;;;;;;8.82;6.68;;;1.60;99.90;;;;;;4918999;29;20565;-88
2022/12/07 00:09:15;;;;;;;9.68;6.70;;;1.60;99.90;;;;;;4950964;29;20074;-89
2022/12/07 00:11:44;;;;;;;10.40;8.73;;;1.60;99.90;;;;;;4918394;29;20222;-88
2022/12/07 00:14:16;;;;;;;10.65;8.05;;;1.60;99.90;;;;;;4949927;28;20051;-88
2022/12/07 00:16:44;;;;;;;13.20;8.55;;;1.60;99.90;;;;;;4918419;29;20047;-89
2022/12/07 00:19:13;;;;;;;10.18;7.60;;;1.60;99.90;;;;;;4933801;29;20059;-88
2022/12/07 00:21:41;;;;;;;11.43;8.40;;;1.60;99.90;;;;;;4950682;28;20554;-89
2022/12/07 00:24:10;;;;;;;10.75;8.60;;;1.60;99.90;;;;;;4949916;29;20043;-90
2022/12/07 00:26:40;;;;;;;12.63;6.65;;;1.60;99.90;;;;;;4951444;29;20051;-88
2022/12/07 00:29:16;;;;;;;7.55;5.57;;;1.60;99.90;;;;;;4949712;28;20043;-89
2022/12/07 00:31:44;;;;;;;9.13;8.18;;;1.60;99.90;;;;;;4953384;28;20039;-89
2022/12/07 00:34:14;;;;;;;15.32;8.55;;;1.50;99.90;;;;;;4969508;28;20050;-89
2022/12/07 00:36:42;;;;;;;8.20;6.85;;;1.50;99.90;;;;;;4970416;28;20059;-88
2022/12/07 00:39:10;;;;;;;10.45;6.95;;;1.50;99.90;;;;;;4966889;28;20050;-88
2022/12/07 00:41:37;;;;;;;10.18;6.82;;;1.50;99.90;;;;;;4988996;28;20039;-89
2022/12/07 00:44:05;;;;;;;9.98;7.70;;;1.50;99.90;;;;;;4971363;28;20119;-89
2022/12/07 00:46:32;;;;;;;8.57;7.68;;;1.50;99.90;;;;;;4971641;28;20042;-88
2022/12/07 00:49:00;;;;;;;12.70;7.35;;;1.50;99.90;;;;;;4977116;28;20566;-88
2022/12/07 00:51:28;;;;;;;10.77;7.05;;;1.50;99.90;;;;;;4952635;28;20062;-88
2022/12/07 00:53:56;;;;;;;9.38;7.40;;;1.50;99.90;;;;;;4968790;28;20082;-88
2022/12/07 00:56:28;;;;;;;13.25;10.43;;;1.50;99.90;;;;;;4951549;28;20208;-89
2022/12/07 00:58:58;;;;;;;8.95;7.45;;;1.50;99.90;;;;;;4969665;28;20055;-88
2022/12/07 01:01:29;;;;;;;9.65;7.00;;;1.50;99.90;;;;;;4969944;28;20050;-89
2022/12/07 01:03:57;;;;;;;10.40;7.47;;;1.50;99.90;;;;;;4967513;28;20049;-89
2022/12/07 01:06:25;;;;;;;9.60;8.30;;;1.40;99.90;;;;;;4952665;28;20062;-89
2022/12/07 01:08:54;;;;;;;8.35;6.05;;;1.40;99.90;;;;;;4936423;28;20069;-89
2022/12/07 01:11:26;;;;;;;8.23;5.03;;;1.40;99.90;;;;;;4968720;28;20514;-89
2022/12/07 01:13:55;;;;;;;10.20;6.40;;;1.40;99.90;;;;;;4969435;28;20054;-88
2022/12/07 01:16:26;;;;;;;10.32;7.63;;;1.40;99.90;;;;;;4967132;28;20058;-89
2022/12/07 01:18:55;;;;;;;;;;;1.40;99.90;;;;;;4934249;29;20058;-88
2022/12/07 01:21:35;;;;;;;7.82;6.90;;;1.40;99.90;;;;;;4916260;29;19929;-89
2022/12/07 01:24:06;;;;;;;7.30;5.65;;;1.40;99.90;;;;;;4949248;28;20426;-89
2022/12/07 01:26:33;;;;;;;7.07;5.60;;;1.40;99.90;;;;;;4933056;29;20499;-89
2022/12/07 01:29:01;;;;;;;8.93;6.95;;;1.40;99.90;;;;;;4949099;29;20260;-89
2022/12/07 01:31:30;;;;;;;6.50;5.90;;;1.30;99.90;;;;;;4932785;28;20055;-89
2022/12/07 01:33:59;;;;;;;10.90;7.70;;;1.30;99.90;;;;;;4954822;28;20054;-89
2022/12/07 01:36:36;;;;;;;9.27;6.90;;;1.30;99.90;;;;;;4952189;28;20065;-89
2022/12/07 01:39:09;;;;;;;6.90;6.20;;;1.30;99.90;;;;;;4989582;28;20417;-89
2022/12/07 01:41:40;;;;;;;7.60;6.05;;;1.30;99.90;;;;;;4988289;28;20047;-89
2022/12/07 01:44:08;;;;;;;8.25;6.85;;;1.30;99.90;;;;;;4954741;28;20050;-88
2022/12/07 01:46:36;;;;;;;8.77;6.75;;;1.30;99.90;;;;;;4971384;28;20086;-88
2022/12/07 01:49:06;;;;;;;10.43;7.93;;;1.30;99.90;;;;;;4969901;28;20046;-89
2022/12/07 01:51:38;;;;;;;9.27;6.60;;;1.30;99.90;;;;;;4955165;28;20058;-89
2022/12/07 01:54:06;;;;;;;8.90;6.70;;;1.30;99.90;;;;;;4955035;28;20054;-89
2022/12/07 01:56:34;;;;;;;6.45;4.88;;;1.30;99.90;;;;;;4987453;28;20053;-89
2022/12/07 01:59:04;;;;;;;9.07;6.32;;;1.30;99.90;;;;;;4970292;28;20058;-89
2022/12/07 02:01:32;;;;;;;11.60;7.40;;;1.30;99.90;;;;;;4988916;28;20054;-88
2022/12/07 02:03:59;;;;;;;11.13;6.22;;;1.30;99.90;;;;;;4969210;28;20462;-88
2022/12/07 02:06:28;;;;;;;9.43;6.97;;;1.30;99.90;;;;;;4954134;28;20069;-88
2022/12/07 02:08:56;;;;;;;8.23;7.05;;;1.30;99.90;;;;;;4970047;28;20038;-88
2022/12/07 02:11:23;;;;;;;10.15;7.95;;;1.30;99.90;;;;;;4969691;28;20050;-89
2022/12/07 02:13:52;;;;;;;8.90;6.80;;;1.20;99.90;;;;;;4974524;28;20152;-89
2022/12/07 02:16:25;;;;;;;7.93;5.38;;;1.20;99.90;;;;;;4967260;28;20433;-88
2022/12/07 02:19:10;;;;;;;9.93;7.90;;;1.20;99.90;;;;;;4967807;28;20058;-88
2022/12/07 02:22:01;;;;;;;8.45;6.10;;;1.20;99.90;;;;;;4941606;28;20051;-88
2022/12/07 02:24:58;;;;;;;7.75;5.90;;;1.20;99.90;;;;;;4950302;28;20059;-87
2022/12/07 02:28:11;;;;;;;11.55;6.90;;;1.20;99.90;;;;;;4917229;28;20053;-89
2022/12/07 02:30:46;;;;;;;6.07;4.63;;;1.20;99.90;;;;;;4936123;28;20256;-88
2022/12/07 02:33:19;;;;;;;8.15;6.45;;;1.20;99.90;;;;;;4950068;28;20249;-88
2022/12/07 02:35:55;;;;;;;7.65;6.18;;;1.20;99.90;;;;;;4934163;28;20051;-89
2022/12/07 02:38:34;;;;;;;11.60;7.18;;;1.20;99.90;;;;;;4975707;28;20406;-88
2022/12/07 02:41:30;;;;;;;9.63;7.85;;;1.10;99.90;;;;;;4966293;28;20772;-88
2022/12/07 02:44:01;;;;;;;12.20;8.48;;;1.10;99.90;;;;;;4966875;28;20410;-89
2022/12/07 02:46:35;;;;;;;10.95;6.78;;;1.10;99.90;;;;;;4966362;28;20062;-88
2022/12/07 02:49:04;;;;;;;10.48;6.97;;;1.10;99.90;;;;;;4953159;28;20462;-88
2022/12/07 02:51:32;;;;;;;15.70;10.55;;;1.10;99.90;;;;;;4963264;28;20078;-89
2022/12/07 02:54:01;;;;;;;12.35;7.63;;;1.10;99.90;;;;;;4947405;29;20051;-87
2022/12/07 02:56:51;;;;;;;11.68;9.32;;;1.10;99.90;;;;;;4947115;28;20614;-87
2022/12/07 02:59:47;;;;;;;12.48;7.10;;;1.10;99.90;;;;;;4946634;28;20768;-88
2022/12/07 03:02:37;;;;;;;12.70;7.28;;;1.10;99.90;;;;;;4946306;29;20074;-88
2022/12/07 03:05:25;;;;;;;10.32;7.80;;;1.10;99.90;;;;;;4947066;28;20047;-89
2022/12/07 03:08:04;;;;;;;11.10;8.23;;;1.10;99.90;;;;;;4947791;28;20039;-89
2022/12/07 03:10:50;;;;;;;11.25;9.13;;;1.10;99.90;;;;;;4948214;29;20074;-87
2022/12/07 03:13:27;;;;;;;7.43;6.45;;;1.10;99.90;;;;;;4947543;28;20062;-88
2022/12/07 03:16:02;;;;;;;9.32;7.35;;;1.10;99.90;;;;;;4946608;28;20090;-88
2022/12/07 03:18:34;;;;;;;10.85;8.15;;;1.10;99.90;;;;;;4962422;28;20538;-89
2022/12/07 03:21:06;;;;;;;13.30;10.82;;;1.10;99.90;;;;;;4947020;28;20078;-88
2022/12/07 03:23:37;;;;;;;11.15;7.45;;;1.10;99.90;;;;;;4945557;28;20055;-89
2022/12/07 03:26:06;;;;;;;10.23;7.47;;;1.10;99.90;;;;;;4963119;28;20054;-89
2022/12/07 03:28:40;;;;;;;9.15;8.07;;;1.10;99.90;;;;;;4948080;28;20062;-88
2022/12/07 03:31:36;;;;;;;11.88;8.45;;;1.10;99.90;;;;;;4931070;29;20063;-88
2022/12/07 03:34:34;;;;;;;13.55;8.25;;;1.10;99.90;;;;;;4924848;29;20055;-88
2022/12/07 03:37:11;;;;;;;10.93;7.13;;;1.20;99.90;;;;;;4923029;28;20676;-88
2022/12/07 03:39:57;;;;;;;14.40;9.30;;;1.10;99.90;;;;;;4945348;28;20533;-89
2022/12/07 03:42:25;;;;;;;10.88;8.00;;;1.10;99.90;;;;;;4931806;29;20402;-89
2022/12/07 03:44:56;;;;;;;9.15;6.90;;;1.10;99.90;;;;;;4931459;29;20047;-90
2022/12/07 03:47:42;;;;;;;10.52;7.38;;;1.10;99.90;;;;;;4946340;29;20055;-88
2022/12/07 03:50:26;;;;;;;10.68;7.97;;;1.10;99.90;;;;;;4915388;29;20051;-89
2022/12/07 03:53:11;;;;;;;12.68;9.35;;;1.10;99.90;;;;;;4932435;29;20055;-89
2022/12/07 03:55:44;;;;;;;11.95;8.10;;;1.10;99.90;;;;;;4931336;28;20082;-88
2022/12/07 03:58:18;;;;;;;13.82;8.63;;;1.10;99.90;;;;;;4932345;29;20071;-88
2022/12/07 04:00:46;;;;;;;13.23;9.45;;;1.10;99.90;;;;;;4931020;29;20054;-90
2022/12/07 04:03:14;;;;;;;11.35;7.72;;;1.10;99.90;;;;;;4930988;29;20376;-89
2022/12/07 04:05:43;;;;;;;10.27;6.70;;;1.10;99.90;;;;;;4931029;28;20048;-88
2022/12/07 04:08:10;;;;;;;10.32;8.38;;;1.10;99.90;;;;;;4930309;28;20070;-88
2022/12/07 04:10:38;;;;;;;14.52;7.60;;;1.10;99.90;;;;;;4932372;29;20063;-89
2022/12/07 04:13:05;;;;;;;11.95;8.48;;;1.10;99.90;;;;;;4931995;28;20051;-88
2022/12/07 04:15:33;;;;;;;15.30;9.07;;;1.10;99.90;;;;;;4930783;29;20064;-89
2022/12/07 04:18:01;;;;;;;12.15;8.35;;;1.10;99.90;;;;;;4931360;29;20056;-88
2022/12/07 04:20:29;;;;;;;14.15;8.73;;;1.10;99.90;;;;;;4946101;28;20062;-89
2022/12/07 04:22:57;;;;;;;14.35;8.45;;;1.10;99.90;;;;;;4914961;29;20067;-88
2022/12/07 04:25:24;;;;;;;15.25;9.27;;;1.10;99.90;;;;;;4946467;29;20035;-88
2022/12/07 04:27:55;;;;;;;11.63;9.35;;;1.10;99.90;;;;;;4930444;28;20411;-88
2022/12/07 04:30:23;;;;;;;11.38;9.00;;;1.10;99.90;;;;;;4931226;29;20523;-88
2022/12/07 04:32:50;;;;;;;11.15;8.55;;;1.10;99.90;;;;;;4931090;29;20055;-89
2022/12/07 04:35:18;;;;;;;14.68;9.32;;;1.10;99.90;;;;;;4928049;28;20431;-88
2022/12/07 04:37:46;;;;;;;11.45;8.00;;;1.20;99.90;;;;;;4936925;28;20396;-88
2022/12/07 04:40:14;;;;;;;8.95;6.78;;;1.00;99.90;;;;;;4967823;28;20070;-88
2022/12/07 04:42:41;;;;;;;12.27;10.18;;;1.10;99.90;;;;;;4985779;28;20557;-90
2022/12/07 04:45:09;;;;;;;13.82;8.45;;;1.10;99.90;;;;;;4952793;28;20042;-88
2022/12/07 04:47:37;;;;;;;14.90;8.00;;;1.00;99.90;;;;;;4967306;28;20058;-88
2022/12/07 04:50:05;;;;;;;8.95;6.97;;;1.10;99.90;;;;;;4947078;28;20066;-89
2022/12/07 04:52:33;;;;;;;13.52;8.38;;;1.00;99.90;;;;;;4949180;28;20660;-88
2022/12/07 04:55:00;;;;;;;9.48;8.30;;;1.10;99.90;;;;;;4933516;29;20059;-87
2022/12/07 04:57:28;;;;;;;11.40;8.63;;;1.00;99.90;;;;;;4945430;28;20043;-88
2022/12/07 04:59:55;;;;;;;9.02;7.00;;;1.10;99.90;;;;;;4947756;28;20062;-89
2022/12/07 05:02:23;;;;;;;9.32;6.70;;;1.10;99.90;;;;;;4929452;29;20490;-87
2022/12/07 05:04:50;;;;;;;9.63;7.82;;;1.10;99.90;;;;;;4945980;28;20131;-88
2022/12/07 05:07:18;;;;;;;19.27;9.50;;;1.10;99.90;;;;;;4946707;29;20043;-88
2022/12/07 05:09:45;;;;;;;13.88;10.48;;;1.10;99.90;;;;;;4945896;28;20418;-89
2022/12/07 05:12:13;;;;;;;12.07;6.53;;;1.10;99.90;;;;;;4940218;29;20455;-88
2022/12/07 05:14:41;;;;;;;9.25;8.32;;;1.00;99.90;;;;;;4945434;29;20051;-89
2022/12/07 05:17:08;;;;;;;13.25;9.80;;;1.10;99.90;;;;;;4936476;29;20522;-88
2022/12/07 05:19:36;;;;;;;14.27;8.20;;;1.00;99.90;;;;;;4943629;29;20054;-88
2022/12/07 05:22:04;;;;;;;11.98;7.05;;;1.00;99.90;;;;;;4913988;29;20047;-87
2022/12/07 05:24:31;;;;;;;10.43;6.65;;;1.00;99.90;;;;;;4929006;28;20063;-89
2022/12/07 05:26:59;;;;;;;12.32;8.18;;;1.00;99.90;;;;;;4930957;29;20052;-88
2022/12/07 05:29:27;;;;;;;13.45;9.45;;;1.10;99.90;;;;;;4918403;29;20880;-90
2022/12/07 05:31:54;;;;;;;11.02;6.57;;;1.10;99.90;;;;;;4948315;28;20515;-89
2022/12/07 05:34:22;;;;;;;11.27;8.23;;;1.10;99.90;;;;;;4947844;29;20063;-88
2022/12/07 05:36:50;;;;;;;13.27;8.35;;;1.10;99.90;;;;;;4948573;29;20048;-90
2022/12/07 05:39:18;;;;;;;13.05;7.78;;;1.10;99.90;;;;;;4950081;28;20051;-89
2022/12/07 05:44:40;;;;;;;11.07;8.35;;;1.10;99.90;;;;;;4951656;28;20043;-90
2022/12/07 05:47:08;;;;;;;12.55;7.85;;;1.10;99.90;;;;;;4952345;28;20058;-90
2022/12/07 05:49:36;;;;;;;11.38;7.70;;;1.10;99.90;;;;;;4952335;28;20046;-88
2022/12/07 05:52:04;;;;;;;14.43;9.95;;;1.10;99.90;;;;;;4952187;28;20043;-91
2022/12/07 05:54:32;;;;;;;15.05;11.00;;;1.10;99.90;;;;;;4935686;28;20062;-89
2022/12/07 05:57:04;;;;;;;14.13;7.63;;;1.10;99.90;;;;;;4935592;28;20043;-90
2022/12/07 05:59:31;;;;;;;21.67;12.30;;;1.10;99.90;;;;;;4968468;28;20050;-90
2022/12/07 06:02:02;;;;;;;13.73;8.60;;;1.10;99.90;;;;;;4967874;28;20073;-89
2022/12/07 06:04:33;;;;;;;10.30;8.68;;;1.10;99.90;;;;;;4934902;28;20051;-90
2022/12/07 06:07:00;;;;;;;14.23;9.75;;;1.00;99.90;;;;;;4967815;28;20047;-89
2022/12/07 06:09:28;;;;;;;14.40;9.68;;;1.00;99.90;;;;;;4935641;28;20050;-89
2022/12/07 06:14:43;;;;;;;11.05;6.90;;;1.00;99.90;;;;;;4967633;28;20411;-90
2022/12/07 06:17:12;;;;;;;10.98;8.57;;;1.00;99.90;;;;;;4958922;28;20039;-88
2022/12/07 06:19:40;;;;;;;15.18;9.57;;;1.00;99.90;;;;;;4965589;28;20458;-88
2022/12/07 06:22:09;;;;;;;20.45;9.98;;;1.00;99.90;;;;;;4935856;28;20361;-90
2022/12/07 06:24:39;;;;;;;12.85;8.63;;;1.00;99.90;;;;;;4950235;28;20051;-90
2022/12/07 06:27:08;;;;;;;12.60;7.88;;;1.00;99.90;;;;;;4967899;28;20069;-88
2022/12/07 06:29:36;;;;;;;14.70;9.38;;;1.00;99.90;;;;;;4951115;28;20065;-91
2022/12/07 06:32:04;;;;;;;11.02;8.70;;;1.00;99.90;;;;;;4934830;28;20050;-90
2022/12/07 06:34:32;;;;;;;12.68;7.82;;;1.00;99.90;;;;;;4956960;28;20055;-89
2022/12/07 06:37:00;;;;;;;16.25;7.93;;;1.00;99.90;;;;;;4948799;28;20059;-89
2022/12/07 06:39:29;;;;;;;16.25;9.68;;;0.90;99.90;;;;;;4970344;28;20057;-88
2022/12/07 06:41:57;;;;;;;13.48;10.07;;;1.00;99.90;;;;;;4955193;28;20050;-88
2022/12/07 06:44:25;;;;;;;10.63;8.57;;;1.00;99.90;;;;;;4968876;28;20050;-89
2022/12/07 06:46:56;;;;;;;15.18;9.55;;;1.00;99.90;;;;;;4970283;28;20058;-89
2022/12/07 06:49:43;;;;;;;14.70;8.75;;;1.00;99.90;;;;;;4952975;28;20081;-88
2022/12/07 06:52:12;;;;;;;14.65;9.13;;;1.00;99.90;;;;;;4969671;28;20058;-89
2022/12/07 06:54:42;;;;;;;21.15;11.98;;;1.00;99.90;;;;;;4969834;28;20052;-87
2022/12/07 06:57:10;;;;;;;15.90;11.23;;;1.00;99.90;;;;;;4954007;28;20050;-89
2022/12/07 06:59:38;;;;;;;12.45;8.55;;;1.00;99.90;;;;;;4986955;28;20046;-89
2022/12/07 07:02:05;;;;;;;13.57;8.85;;;1.00;99.90;;;;;;4970047;28;20050;-88
2022/12/07 07:04:33;;;;;;;11.65;9.93;;;1.00;99.90;;;;;;4985425;28;20429;-88
2022/12/07 07:07:01;;;;;;;16.42;9.68;;;1.00;99.90;;;;;;4986608;28;20050;-88
2022/12/07 07:09:28;;;;;;;17.88;8.13;;;1.00;99.90;;;;;;4952880;28;20072;-88
2022/12/07 07:11:58;;;;;;;16.65;9.70;;;1.10;99.90;;;;;;4953812;28;20611;-90
2022/12/07 07:14:26;;;;;;;16.05;9.80;;;1.10;99.90;;;;;;4952291;28;20058;-88
2022/12/07 07:16:53;;;;;;;15.02;10.48;;;1.10;99.90;;;;;;4966632;28;20057;-89
2022/12/07 07:19:21;;;;;;;19.10;11.63;;;1.10;99.90;;;;;;4966494;28;20063;-88
2022/12/07 07:21:49;;;;;;;15.65;11.07;;;1.10;99.90;;;;;;4934723;28;20077;-89
2022/12/07 07:24:16;;;;;;;11.18;8.30;;;1.10;99.90;;;;;;4950053;28;20062;-89
2022/12/07 07:26:44;;;;;;;16.20;9.65;;;1.10;99.90;;;;;;4950054;28;20513;-88
2022/12/07 07:29:13;;;;;;;13.20;9.50;;;1.10;99.90;;;;;;4949667;28;20039;-88
2022/12/07 07:31:40;;;;;;;18.77;10.20;;;1.10;99.90;;;;;;4965999;28;20047;-89
2022/12/07 07:34:08;;;;;;;17.67;9.63;;;1.10;99.90;;;;;;4933655;28;20050;-89
2022/12/07 07:36:35;;;;;;;16.42;10.93;;;1.10;99.90;;;;;;4949367;28;20066;-89
2022/12/07 07:39:04;;;;;;;22.13;10.23;;;1.10;99.90;;;;;;4948118;28;20675;-88
2022/12/07 07:41:32;;;;;;;13.15;9.82;;;1.30;99.90;;;;;;4969406;28;20039;-89
2022/12/07 07:44:03;;;;;;;13.70;10.33;;;1.10;99.90;;;;;;4969155;28;20061;-89
2022/12/07 07:46:32;;;;;;;14.40;9.07;;;1.20;99.90;;;;;;4952532;28;20476;-89
2022/12/07 07:49:00;;;;;;;15.40;10.25;;;1.30;99.90;;;;;;4961862;28;20467;-88
2022/12/07 07:51:28;;;;;;;16.13;11.55;;;1.20;99.90;;;;;;4915109;29;20398;-88
2022/12/07 07:53:57;;;;;;;13.23;9.23;;;1.20;99.90;;;;;;4947752;29;20250;-89
2022/12/07 07:56:25;;;;;;;17.05;9.98;;;1.20;99.90;;;;;;4930267;29;20063;-88
2022/12/07 07:58:53;;;;;;;11.88;8.30;;;1.30;99.90;;;;;;4931004;29;20066;-89
2022/12/07 08:01:20;;;;;;;16.88;10.15;;;1.30;99.90;;;;;;4915294;29;20070;-89
2022/12/07 08:03:50;;;;;;;14.13;9.43;;;1.30;99.90;;;;;;4913802;29;20047;-90
2022/12/07 08:06:18;;;;;;;14.23;8.88;;;1.30;99.90;;;;;;4931049;29;20059;-88
2022/12/07 08:08:45;;;;;;;13.70;9.00;;;1.30;99.90;;;;;;4932060;29;20622;-89
2022/12/07 08:11:13;;;;;;;12.18;9.35;;;1.40;99.90;;;;;;4948680;29;20047;-88
2022/12/07 08:13:48;;;;;;;14.18;9.18;;;1.40;99.90;;;;;;4947644;29;20520;-88
2022/12/07 08:16:17;;;;;;;12.77;9.82;;;1.40;99.90;;;;;;4926713;28;20252;-88
2022/12/07 08:18:44;;;;;;;15.02;11.15;;;1.50;99.90;;;;;;4967786;28;20403;-90
2022/12/07 08:21:15;;;;;;;15.15;9.40;;;1.50;99.90;;;;;;4949183;28;20043;-88
2022/12/07 08:23:43;;;;;;;13.48;9.25;;;1.50;99.90;;;;;;4949195;28;20050;-88
2022/12/07 08:26:13;;;;;;;11.93;7.88;;;1.50;99.90;;;;;;4944274;28;20533;-89
2022/12/07 08:28:47;;;;;;;13.10;8.88;;;1.60;99.90;;;;;;4965120;28;20050;-88
2022/12/07 08:31:17;;;;;;;11.30;8.90;;;1.60;99.90;;;;;;4951231;28;20066;-89
2022/12/07 08:33:48;;;;;;;9.32;7.85;;;1.60;99.90;;;;;;4933684;28;20402;-87
2022/12/07 08:36:19;;;;;;;14.00;9.25;;;1.70;99.90;;;;;;4964446;28;20051;-88
2022/12/07 08:38:46;;;;;;;14.57;9.02;;;1.70;99.90;;;;;;4969324;28;20056;-89
2022/12/07 08:41:34;;;;;;;11.45;9.02;;;1.80;99.90;;;;;;4948125;28;20058;-87
2022/12/07 08:44:06;;;;;;;17.23;8.73;;;1.70;99.90;;;;;;4946064;28;20051;-87
2022/12/07 08:46:52;;;;;;;17.00;10.57;;;1.70;99.90;;;;;;4931909;28;20058;-88
2022/12/07 08:49:26;;;;;;;11.13;8.02;;;1.70;99.90;;;;;;4963402;28;20050;-87
2022/12/07 08:51:54;;;;;;;18.95;10.32;;;1.70;99.90;;;;;;4926063;29;20047;-88
2022/12/07 08:54:23;;;;;;;12.27;8.85;;;1.70;99.90;;;;;;4945958;28;20471;-88
2022/12/07 08:56:57;;;;;;;11.15;8.65;;;1.80;99.90;;;;;;4962016;28;20043;-87
2022/12/07 08:59:27;;;;;;;13.07;7.35;;;1.80;99.90;;;;;;4952329;28;20058;-88
2022/12/07 09:01:55;;;;;;;13.98;9.95;;;1.80;99.90;;;;;;4930420;29;20066;-89
2022/12/07 09:04:23;;;;;;;12.48;8.50;;;1.80;99.90;;;;;;4952588;28;20051;-87
2022/12/07 09:06:51;;;;;;;12.57;8.35;;;1.80;99.90;;;;;;4965507;28;20104;-88
2022/12/07 09:09:18;;;;;;;10.65;7.68;;;1.80;99.90;;;;;;4956377;28;20054;-88
2022/12/07 09:11:46;;;;;;;14.20;9.27;;;1.70;99.90;;;;;;4925147;29;20043;-88
2022/12/07 09:14:17;;;;;;;10.20;7.05;;;1.80;99.90;;;;;;4946070;28;20054;-87
2022/12/07 09:16:44;;;;;;;11.88;8.70;;;1.80;99.90;;;;;;4970042;28;20053;-87
2022/12/07 09:19:12;;;;;;;15.70;10.10;;;1.90;99.90;;;;;;4938317;28;20057;-87
2022/12/07 09:21:40;;;;;;;12.27;7.93;;;1.90;99.90;;;;;;4939326;28;20047;-88
2022/12/07 09:24:08;;;;;;;13.65;10.40;;;1.90;99.90;;;;;;4950276;28;20047;-88
2022/12/07 09:26:40;;;;;;;9.77;6.22;;;1.90;99.90;;;;;;4964676;28;20082;-89
2022/12/07 09:29:08;;;;;;;12.00;8.00;;;2.00;99.90;;;;;;4944101;28;20662;-87
2022/12/07 09:31:38;;;;;;;12.25;6.78;;;2.00;99.90;;;;;;4944700;28;21198;-88
2022/12/07 09:34:06;;;;;;;7.38;5.75;;;2.00;99.90;;;;;;4945580;29;20047;-87
2022/12/07 09:36:34;;;;;;;8.07;5.82;;;2.10;99.90;;;;;;4962411;28;20073;-88
2022/12/07 09:39:04;;;;;;;7.80;5.95;;;2.10;99.90;;;;;;4951428;28;20047;-88
2022/12/07 09:41:39;;;;;;;7.47;5.88;;;2.20;99.90;;;;;;4951480;28;20070;-88
2022/12/07 09:44:14;;;;;;;12.20;7.45;;;2.20;99.90;;;;;;4946360;28;20047;-88
2022/12/07 09:46:45;;;;;;;8.15;6.85;;;2.20;99.90;;;;;;4927271;29;20063;-88
2022/12/07 09:49:18;;;;;;;6.88;6.18;;;2.30;99.90;;;;;;4938459;29;20482;-88
2022/12/07 09:51:47;;;;;;;7.85;5.30;;;2.30;99.90;;;;;;4954281;28;20046;-88
2022/12/07 09:54:16;;;;;;;9.07;6.80;;;2.40;99.90;;;;;;4948526;28;20054;-88
2022/12/07 09:56:44;;;;;;;6.28;5.35;;;2.40;99.90;;;;;;4962872;28;20051;-88
2022/12/07 09:59:18;;;;;;;8.85;6.95;;;2.50;99.90;;;;;;4955369;28;20056;-88
2022/12/07 10:01:48;;;;;;;10.05;6.63;;;2.40;99.90;;;;;;4956566;28;20051;-89
2022/12/07 10:04:25;;;;;;;11.20;7.68;;;2.40;99.90;;;;;;4935942;28;20058;-89
2022/12/07 10:06:52;;;;;;;5.45;4.95;;;2.50;99.90;;;;;;4941313;28;20074;-88
2022/12/07 10:09:21;;;;;;;7.03;5.47;;;2.60;99.90;;;;;;4936796;28;20051;-89
2022/12/07 10:11:59;;;;;;;7.20;5.45;;;2.60;99.90;;;;;;4957580;28;20043;-89
2022/12/07 10:14:29;;;;;;;8.40;6.95;;;2.70;99.90;;;;;;4945359;28;20423;-88
2022/12/07 10:17:34;;;;;;;7.82;7.03;;;2.60;99.90;;;;;;4963009;28;20055;-89
2022/12/07 10:20:19;;;;;;;10.75;6.45;;;2.70;99.90;;;;;;4930657;28;20052;-88
2022/12/07 10:23:02;;;;;;;7.20;5.63;;;2.60;99.90;;;;;;4910144;29;20095;-89
2022/12/07 10:25:35;;;;;;;9.80;6.22;;;2.70;99.90;;;;;;4937509;28;20080;-88
2022/12/07 10:28:15;;;;;;;7.50;5.35;;;2.50;99.90;;;;;;4927808;28;20048;-88
2022/12/07 10:31:19;;;;;;;8.98;6.00;;;2.70;99.90;;;;;;4950862;28;20055;-88
2022/12/07 10:33:53;;;;;;;;;;;2.70;99.90;;;;;;4954821;28;20047;-88
2022/12/07 10:36:42;;;;;;;8.50;5.70;;;2.80;99.90;;;;;;4940495;28;19927;-88
2022/12/07 10:39:17;;;;;;;9.68;6.07;;;2.90;99.90;;;;;;4955146;28;20394;-90
2022/12/07 10:42:01;;;;;;;8.00;5.65;;;2.90;99.90;;;;;;4961402;28;20507;-87
2022/12/07 10:44:42;;;;;;;6.65;5.53;;;2.90;99.90;;;;;;4930590;28;20489;-88
2022/12/07 10:47:35;;;;;;;5.57;4.50;;;2.80;99.90;;;;;;4930982;28;20050;-89
2022/12/07 10:50:27;;;;;;;7.63;5.00;;;2.90;99.90;;;;;;4930330;28;20050;-89
2022/12/07 10:52:55;;;;;;;9.80;5.93;;;2.80;99.90;;;;;;4928817;29;20054;-90
2022/12/07 10:55:41;;;;;;;4.75;4.13;;;2.80;99.90;;;;;;4937491;28;20292;-89
2022/12/07 10:58:34;;;;;;;7.18;5.07;;;2.90;99.90;;;;;;4947919;28;20089;-89
2022/12/07 11:01:41;;;;;;;5.50;4.90;;;2.90;99.90;;;;;;4939550;28;20047;-89
2022/12/07 11:04:50;;;;;;;7.90;5.45;;;2.90;99.90;;;;;;4943390;29;20566;-89
2022/12/07 11:07:42;;;;;;;6.65;5.82;;;2.90;99.90;;;;;;4920042;28;20055;-88
2022/12/07 11:10:39;;;;;;;10.15;6.43;;;3.00;99.90;;;;;;4947676;28;20057;-89
2022/12/07 11:13:33;;;;;;;8.88;6.50;;;3.00;99.90;;;;;;4940408;28;20054;-89
2022/12/07 11:16:16;;;;;;;5.13;3.72;;;3.00;99.90;;;;;;4947200;28;20047;-88
2022/12/07 11:19:08;;;;;;;6.80;6.10;;;3.00;99.90;;;;;;4928045;28;20249;-88
2022/12/07 11:21:57;;;;;;;12.63;6.55;;;3.00;99.90;;;;;;4936999;28;20057;-89
2022/12/07 11:24:39;;;;;;;6.25;5.63;;;2.90;99.90;;;;;;4955086;28;20061;-89
2022/12/07 11:27:16;;;;;;;7.07;5.50;;;2.90;99.90;;;;;;4927765;29;20055;-88
2022/12/07 11:29:57;;;;;;;6.60;5.57;;;2.90;99.90;;;;;;4936432;28;20059;-88
2022/12/07 11:32:43;;;;;;;8.55;5.97;;;2.90;99.90;;;;;;4961865;28;20857;-88
2022/12/07 11:35:31;;;;;;;5.47;4.43;;;2.90;99.90;;;;;;4947911;28;20056;-89
2022/12/07 11:38:09;;;;;;;8.95;5.50;;;2.90;99.90;;;;;;4950347;28;20421;-91
2022/12/07 11:40:40;;;;;;;8.90;6.25;;;3.00;99.90;;;;;;4924566;28;20492;-90
2022/12/07 11:43:34;;;;;;;7.28;5.55;;;3.00;99.90;;;;;;4967538;28;20065;-88
2022/12/07 11:46:10;;;;;;;10.52;6.60;;;3.00;99.90;;;;;;4920535;28;20458;-89
2022/12/07 11:48:46;;;;;;;7.63;5.70;;;3.10;99.90;;;;;;4947045;28;20078;-87
2022/12/07 11:51:18;;;;;;;6.20;5.60;;;3.00;99.90;;;;;;4947870;28;20501;-87
2022/12/07 11:53:49;;;;;;;8.35;7.07;;;3.00;99.90;;;;;;4947053;28;20061;-86
2022/12/07 11:56:22;;;;;;;8.82;6.28;;;2.90;99.90;;;;;;4978781;28;20707;-88
2022/12/07 11:59:18;;;;;;;10.45;8.35;;;2.90;99.90;;;;;;4952492;28;20562;-87
2022/12/07 12:02:02;;;;;;;9.30;6.88;;;2.90;99.90;;;;;;4956030;28;20408;-88
2022/12/07 12:04:52;;;;;;;;;;;2.90;99.90;;;;;;4950724;28;20054;-91
2022/12/07 12:07:25;;;;;;;7.65;6.95;;;3.00;99.90;;;;;;4927036;28;19957;-90
2022/12/07 12:10:35;;;;;;;8.52;5.10;;;2.90;99.90;;;;;;4980122;28;20422;-88
2022/12/07 12:13:36;;;;;;;10.43;5.70;;;3.00;99.90;;;;;;4935353;28;20058;-89
2022/12/07 12:16:59;;;;;;;7.95;5.70;;;3.00;99.90;;;;;;4903393;29;20857;-90
2022/12/07 12:20:03;;;;;;;7.03;5.60;;;3.00;99.90;;;;;;4898661;29;20066;-88
2022/12/07 12:22:38;;;;;;;8.02;6.13;;;3.00;99.90;;;;;;4926246;29;20062;-90
2022/12/07 12:25:15;;;;;;;7.13;5.68;;;2.90;99.90;;;;;;4935033;29;20048;-88
2022/12/07 12:27:50;;;;;;;6.75;4.65;;;2.90;99.90;;;;;;4902788;29;20456;-92
2022/12/07 12:30:39;;;;;;;8.13;5.32;;;2.80;99.90;;;;;;4911462;29;20070;-89
2022/12/07 12:33:29;;;;;;;5.78;4.55;;;2.80;99.90;;;;;;4904453;28;20448;-90
2022/12/07 12:36:17;;;;;;;5.72;5.22;;;2.80;99.90;;;;;;4907407;29;20082;-89
2022/12/07 12:39:06;;;;;;;6.50;5.63;;;2.80;99.90;;;;;;4933729;29;20060;-89
2022/12/07 12:42:23;;;;;;;8.15;7.35;;;2.80;99.90;;;;;;4901345;29;20063;-89
2022/12/07 12:44:32;;;;;;;7.65;6.13;;;2.80;99.90;;;;;;4943756;28;20062;-90
2022/12/07 12:47:04;;;;;;;6.53;3.83;;;2.90;99.90;;;;;;4930784;29;20058;-89
2022/12/07 12:49:38;;;;;;;7.22;5.47;;;2.90;99.90;;;;;;4945442;28;20051;-92
2022/12/07 12:52:15;;;;;;;7.80;5.45;;;2.80;99.90;;;;;;4947271;28;20518;-89
2022/12/07 12:55:21;;;;;;;9.23;6.32;;;2.90;99.90;;;;;;4945445;28;20061;-88
2022/12/07 12:58:17;;;;;;;6.63;6.03;;;2.80;99.90;;;;;;4964420;28;20063;-90
2022/12/07 13:01:27;;;;;;;8.45;6.07;;;2.80;99.90;;;;;;4956259;28;20047;-89
2022/12/07 13:03:58;;;;;;;8.27;6.50;;;2.80;99.90;;;;;;4957794;28;20055;-92
2022/12/07 13:06:26;;;;;;;7.93;6.40;;;2.90;99.90;;;;;;4947397;28;20054;-91
2022/12/07 13:09:00;;;;;;;5.13;4.18;;;2.90;99.90;;;;;;4939953;29;20590;-92
2022/12/07 13:11:39;;;;;;;7.90;6.20;;;3.00;99.90;;;;;;4943148;28;20490;-91
2022/12/07 13:14:35;;;;;;;5.68;4.25;;;3.10;99.90;;;;;;4947778;28;20043;-90
2022/12/07 13:17:03;;;;;;;7.13;4.25;;;3.00;99.90;;;;;;4913481;29;20059;-91
2022/12/07 13:19:54;;;;;;;8.73;4.28;;;2.90;99.90;;;;;;4935098;28;20043;-91
2022/12/07 13:22:31;;;;;;;7.13;5.40;;;2.90;99.90;;;;;;4922084;28;20296;-92
2022/12/07 13:25:19;;;;;;;6.63;4.07;;;2.90;99.90;;;;;;4944574;28;20059;-90
2022/12/07 13:28:21;;;;;;;5.07;4.57;;;2.90;99.90;;;;;;4946881;28;20047;-91
2022/12/07 13:31:18;;;;;;;6.88;5.57;;;2.90;99.90;;;;;;4918178;28;20138;-90
2022/12/07 13:33:48;;;;;;;9.93;6.32;;;2.80;99.90;;;;;;4914873;29;20055;-90